NCAR-RAP Real-Time Weather Data

Output produced by METARs form (12 May 2021  11:43 UTC)
found at http://weather.rap.ucar.edu/surface/
 
KMFR 121053Z AUTO 00000KT 10SM CLR 11/02 A3005 RMK AO2 SLP170 T01060022
KMFR 120953Z AUTO 04004KT 10SM CLR 10/02 A3005 RMK AO2 SLP168 T01000017
KMFR 120853Z AUTO 00000KT 10SM CLR 13/02 A3005 RMK AO2 SLP168 T01330022 53004
KMFR 120753Z AUTO 24003KT 10SM CLR 15/03 A3005 RMK AO2 SLP167 T01500028 402890067
KMFR 120653Z AUTO 00000KT 10SM CLR 16/02 A3004 RMK AO2 SLP165 T01610017
KMFR 120553Z AUTO 00000KT 10SM CLR 18/00 A3004 RMK AO2 SLP165 T01780000 10283 20167 51019
KMFR 120453Z AUTO 01003KT 10SM CLR 19/01 A3003 RMK AO2 SLP162 T01890006
KMFR 120353Z AUTO 32006KT 10SM CLR 22/01 A3000 RMK AO2 SLP154 T02170006
KMFR 120253Z 32009KT 10SM CLR 24/01 A2998 RMK AO2 SLP146 T02390011 53007
KMFR 120153Z 33011KT 10SM CLR 27/04 A2996 RMK AO2 SLP139 T02670039
KMFR 120053Z 36008KT 10SM CLR 28/03 A2995 RMK AO2 SLP136 T02830033
KMFR 112353Z 31007KT 280V340 10SM CLR 28/01 A2996 RMK AO2 SLP138 T02830006 10289 20183 56022
KMFR 112253Z VRB05KT 10SM CLR 28/01 A2998 RMK AO2 SLP144 T02780006